Pennington Gap, Virginia
Current Conditions -  °F | °C
As of 7:55 AM on Thursday 27 Nov 2014 (Local Time) from K0VG Reporting Station
Light Rain Light Rain  
Wind Chill: 34°   Ceiling: 3100
Heat Index: 34°   Visibility: 7mi
Dew Point: 34°   Wind: 0mph
Humidity: 100%   Direction: NA
Pressure: 30.13"   Gusts: NA
Location:  36.76°N, 83.03°W
Report Text: K0VG 271255Z AUTO 00000KT 7SM -RA SCT020 BKN031 01/01 A3013 RMK AO2 P0001
Loading
Personal Weather Stations






























Interactive Weather Map New forecast layout! Learn more

10-Day Weather Forecast

Advertisements
Track Severe Weather on mobile